sensor_id;sensor_type;location;lat;lon;timestamp;P1;durP1;ratioP1;P2;durP2;ratioP2
20491;SDS011;10404;51.468;6.762;2023-07-22T00:00:32;8.68;;;5.00;;
20491;SDS011;10404;51.468;6.762;2023-07-22T00:02:58;6.80;;;5.05;;
20491;SDS011;10404;51.468;6.762;2023-07-22T00:05:23;6.13;;;5.00;;
20491;SDS011;10404;51.468;6.762;2023-07-22T00:07:50;7.00;;;5.07;;
20491;SDS011;10404;51.468;6.762;2023-07-22T00:10:16;5.88;;;4.82;;
20491;SDS011;10404;51.468;6.762;2023-07-22T00:12:41;6.47;;;4.57;;
20491;SDS011;10404;51.468;6.762;2023-07-22T00:15:07;7.53;;;5.28;;
20491;SDS011;10404;51.468;6.762;2023-07-22T00:17:33;7.07;;;5.00;;
20491;SDS011;10404;51.468;6.762;2023-07-22T00:19:58;6.25;;;5.28;;
20491;SDS011;10404;51.468;6.762;2023-07-22T00:22:25;6.63;;;5.25;;
20491;SDS011;10404;51.468;6.762;2023-07-22T00:24:52;5.65;;;4.18;;
20491;SDS011;10404;51.468;6.762;2023-07-22T00:27:17;5.82;;;4.82;;
20491;SDS011;10404;51.468;6.762;2023-07-22T00:29:43;5.78;;;5.10;;
20491;SDS011;10404;51.468;6.762;2023-07-22T00:32:09;5.68;;;4.72;;
20491;SDS011;10404;51.468;6.762;2023-07-22T00:34:35;6.45;;;4.82;;
20491;SDS011;10404;51.468;6.762;2023-07-22T00:37:03;6.32;;;5.43;;
20491;SDS011;10404;51.468;6.762;2023-07-22T00:39:28;6.30;;;5.13;;
20491;SDS011;10404;51.468;6.762;2023-07-22T00:41:54;7.03;;;4.90;;
20491;SDS011;10404;51.468;6.762;2023-07-22T00:44:19;6.65;;;4.88;;
20491;SDS011;10404;51.468;6.762;2023-07-22T00:46:45;5.63;;;5.07;;
20491;SDS011;10404;51.468;6.762;2023-07-22T00:49:10;5.68;;;4.72;;
20491;SDS011;10404;51.468;6.762;2023-07-22T00:51:39;5.88;;;4.95;;
20491;SDS011;10404;51.468;6.762;2023-07-22T00:54:05;6.90;;;5.30;;
20491;SDS011;10404;51.468;6.762;2023-07-22T00:56:31;7.90;;;5.45;;
20491;SDS011;10404;51.468;6.762;2023-07-22T00:59:00;6.60;;;5.50;;
20491;SDS011;10404;51.468;6.762;2023-07-22T01:01:27;5.70;;;4.20;;
20491;SDS011;10404;51.468;6.762;2023-07-22T01:03:53;6.43;;;4.90;;
20491;SDS011;10404;51.468;6.762;2023-07-22T01:06:19;6.38;;;5.20;;
20491;SDS011;10404;51.468;6.762;2023-07-22T01:08:45;6.40;;;5.18;;
20491;SDS011;10404;51.468;6.762;2023-07-22T01:11:14;6.22;;;5.40;;
20491;SDS011;10404;51.468;6.762;2023-07-22T01:13:40;5.63;;;4.70;;
20491;SDS011;10404;51.468;6.762;2023-07-22T01:16:05;5.70;;;4.60;;
20491;SDS011;10404;51.468;6.762;2023-07-22T01:18:32;6.53;;;4.53;;
20491;SDS011;10404;51.468;6.762;2023-07-22T01:20:58;7.90;;;5.00;;
20491;SDS011;10404;51.468;6.762;2023-07-22T01:23:24;5.43;;;4.38;;
20491;SDS011;10404;51.468;6.762;2023-07-22T01:25:50;7.45;;;5.40;;
20491;SDS011;10404;51.468;6.762;2023-07-22T01:28:16;5.85;;;4.93;;
20491;SDS011;10404;51.468;6.762;2023-07-22T01:30:42;5.93;;;5.32;;
20491;SDS011;10404;51.468;6.762;2023-07-22T01:33:07;7.55;;;5.13;;
20491;SDS011;10404;51.468;6.762;2023-07-22T01:35:33;7.00;;;5.47;;
20491;SDS011;10404;51.468;6.762;2023-07-22T01:37:59;6.90;;;5.35;;
20491;SDS011;10404;51.468;6.762;2023-07-22T01:40:24;6.55;;;4.45;;
20491;SDS011;10404;51.468;6.762;2023-07-22T01:42:50;5.05;;;4.43;;
20491;SDS011;10404;51.468;6.762;2023-07-22T01:45:16;7.60;;;5.28;;
20491;SDS011;10404;51.468;6.762;2023-07-22T01:47:42;5.80;;;4.90;;
20491;SDS011;10404;51.468;6.762;2023-07-22T01:50:07;5.00;;;4.40;;
20491;SDS011;10404;51.468;6.762;2023-07-22T01:52:34;6.18;;;5.03;;
20491;SDS011;10404;51.468;6.762;2023-07-22T01:55:00;6.00;;;5.40;;
20491;SDS011;10404;51.468;6.762;2023-07-22T01:57:30;5.57;;;4.85;;
20491;SDS011;10404;51.468;6.762;2023-07-22T01:59:56;6.05;;;5.10;;
20491;SDS011;10404;51.468;6.762;2023-07-22T02:02:21;5.43;;;4.68;;
20491;SDS011;10404;51.468;6.762;2023-07-22T02:04:47;6.55;;;4.95;;
20491;SDS011;10404;51.468;6.762;2023-07-22T02:07:13;6.57;;;5.10;;
20491;SDS011;10404;51.468;6.762;2023-07-22T02:09:40;6.03;;;4.70;;
20491;SDS011;10404;51.468;6.762;2023-07-22T02:12:06;6.68;;;5.30;;
20491;SDS011;10404;51.468;6.762;2023-07-22T02:14:32;4.82;;;4.32;;
20491;SDS011;10404;51.468;6.762;2023-07-22T02:16:58;5.85;;;4.57;;
20491;SDS011;10404;51.468;6.762;2023-07-22T02:19:24;6.20;;;4.60;;
20491;SDS011;10404;51.468;6.762;2023-07-22T02:21:49;6.38;;;4.63;;
20491;SDS011;10404;51.468;6.762;2023-07-22T02:24:15;6.75;;;5.53;;
20491;SDS011;10404;51.468;6.762;2023-07-22T02:26:41;5.47;;;4.32;;
20491;SDS011;10404;51.468;6.762;2023-07-22T02:29:06;6.88;;;4.85;;
20491;SDS011;10404;51.468;6.762;2023-07-22T02:31:32;7.30;;;5.68;;
20491;SDS011;10404;51.468;6.762;2023-07-22T02:33:58;6.47;;;4.68;;
20491;SDS011;10404;51.468;6.762;2023-07-22T02:36:24;5.32;;;4.28;;
20491;SDS011;10404;51.468;6.762;2023-07-22T02:38:50;6.10;;;4.75;;
20491;SDS011;10404;51.468;6.762;2023-07-22T02:41:16;5.57;;;4.65;;
20491;SDS011;10404;51.468;6.762;2023-07-22T02:43:41;5.80;;;5.18;;
20491;SDS011;10404;51.468;6.762;2023-07-22T02:46:07;6.18;;;4.60;;
20491;SDS011;10404;51.468;6.762;2023-07-22T02:48:33;5.78;;;4.28;;
20491;SDS011;10404;51.468;6.762;2023-07-22T02:51:01;5.63;;;4.60;;
20491;SDS011;10404;51.468;6.762;2023-07-22T02:53:34;5.90;;;4.30;;
20491;SDS011;10404;51.468;6.762;2023-07-22T02:56:03;6.70;;;4.57;;
20491;SDS011;10404;51.468;6.762;2023-07-22T02:58:32;7.63;;;5.13;;
20491;SDS011;10404;51.468;6.762;2023-07-22T03:00:58;7.32;;;5.25;;
20491;SDS011;10404;51.468;6.762;2023-07-22T03:03:24;5.90;;;4.95;;
20491;SDS011;10404;51.468;6.762;2023-07-22T03:05:50;5.72;;;4.75;;
20491;SDS011;10404;51.468;6.762;2023-07-22T03:08:17;6.35;;;4.47;;
20491;SDS011;10404;51.468;6.762;2023-07-22T03:10:43;6.03;;;4.38;;
20491;SDS011;10404;51.468;6.762;2023-07-22T03:13:13;7.05;;;5.03;;
20491;SDS011;10404;51.468;6.762;2023-07-22T03:15:39;5.80;;;4.45;;
20491;SDS011;10404;51.468;6.762;2023-07-22T03:18:05;5.97;;;4.68;;
20491;SDS011;10404;51.468;6.762;2023-07-22T03:20:34;5.35;;;4.53;;
20491;SDS011;10404;51.468;6.762;2023-07-22T03:23:04;7.55;;;4.28;;
20491;SDS011;10404;51.468;6.762;2023-07-22T03:25:30;7.13;;;4.90;;
20491;SDS011;10404;51.468;6.762;2023-07-22T03:27:57;6.30;;;5.20;;
20491;SDS011;10404;51.468;6.762;2023-07-22T03:30:24;6.10;;;5.50;;
20491;SDS011;10404;51.468;6.762;2023-07-22T03:32:50;5.30;;;4.60;;
20491;SDS011;10404;51.468;6.762;2023-07-22T03:35:16;5.13;;;4.25;;
20491;SDS011;10404;51.468;6.762;2023-07-22T03:37:42;5.75;;;4.30;;
20491;SDS011;10404;51.468;6.762;2023-07-22T03:40:08;5.18;;;4.40;;
20491;SDS011;10404;51.468;6.762;2023-07-22T03:43:07;6.50;;;4.22;;
20491;SDS011;10404;51.468;6.762;2023-07-22T03:45:33;5.95;;;4.05;;
20491;SDS011;10404;51.468;6.762;2023-07-22T03:47:58;6.75;;;4.95;;
20491;SDS011;10404;51.468;6.762;2023-07-22T03:50:25;5.22;;;4.28;;
20491;SDS011;10404;51.468;6.762;2023-07-22T03:52:51;5.95;;;4.35;;
20491;SDS011;10404;51.468;6.762;2023-07-22T03:55:17;7.78;;;4.90;;
20491;SDS011;10404;51.468;6.762;2023-07-22T03:57:44;6.70;;;4.43;;
20491;SDS011;10404;51.468;6.762;2023-07-22T04:00:10;5.25;;;4.47;;
20491;SDS011;10404;51.468;6.762;2023-07-22T04:02:36;5.95;;;3.97;;
20491;SDS011;10404;51.468;6.762;2023-07-22T04:05:02;6.97;;;4.97;;
20491;SDS011;10404;51.468;6.762;2023-07-22T04:07:28;5.90;;;4.43;;
20491;SDS011;10404;51.468;6.762;2023-07-22T04:09:53;6.25;;;4.55;;
20491;SDS011;10404;51.468;6.762;2023-07-22T04:12:19;6.03;;;4.28;;
20491;SDS011;10404;51.468;6.762;2023-07-22T04:14:44;6.32;;;4.20;;
20491;SDS011;10404;51.468;6.762;2023-07-22T04:17:10;5.50;;;4.30;;
20491;SDS011;10404;51.468;6.762;2023-07-22T04:19:36;5.18;;;3.97;;
20491;SDS011;10404;51.468;6.762;2023-07-22T04:22:01;4.80;;;3.80;;
20491;SDS011;10404;51.468;6.762;2023-07-22T04:24:32;6.70;;;4.40;;
20491;SDS011;10404;51.468;6.762;2023-07-22T04:26:58;4.43;;;3.95;;
20491;SDS011;10404;51.468;6.762;2023-07-22T04:29:24;5.80;;;4.32;;
20491;SDS011;10404;51.468;6.762;2023-07-22T04:31:49;6.57;;;4.47;;
20491;SDS011;10404;51.468;6.762;2023-07-22T04:34:15;6.13;;;4.30;;
20491;SDS011;10404;51.468;6.762;2023-07-22T04:36:40;4.93;;;3.97;;
20491;SDS011;10404;51.468;6.762;2023-07-22T04:39:06;5.88;;;5.03;;
20491;SDS011;10404;51.468;6.762;2023-07-22T04:41:32;7.13;;;4.05;;
20491;SDS011;10404;51.468;6.762;2023-07-22T04:43:58;7.10;;;4.35;;
20491;SDS011;10404;51.468;6.762;2023-07-22T04:46:27;6.07;;;3.90;;
20491;SDS011;10404;51.468;6.762;2023-07-22T04:48:54;8.27;;;4.32;;
20491;SDS011;10404;51.468;6.762;2023-07-22T04:51:20;5.20;;;4.43;;
20491;SDS011;10404;51.468;6.762;2023-07-22T04:53:45;7.03;;;3.90;;
20491;SDS011;10404;51.468;6.762;2023-07-22T04:56:11;7.07;;;4.45;;
20491;SDS011;10404;51.468;6.762;2023-07-22T04:58:36;6.65;;;4.55;;
20491;SDS011;10404;51.468;6.762;2023-07-22T05:01:02;6.57;;;4.25;;
20491;SDS011;10404;51.468;6.762;2023-07-22T05:03:27;6.18;;;4.00;;
20491;SDS011;10404;51.468;6.762;2023-07-22T05:05:53;6.78;;;4.65;;
20491;SDS011;10404;51.468;6.762;2023-07-22T05:08:19;6.78;;;4.30;;
20491;SDS011;10404;51.468;6.762;2023-07-22T05:10:44;6.45;;;4.18;;
20491;SDS011;10404;51.468;6.762;2023-07-22T05:13:11;6.18;;;4.18;;
20491;SDS011;10404;51.468;6.762;2023-07-22T05:15:36;7.43;;;4.60;;
20491;SDS011;10404;51.468;6.762;2023-07-22T05:18:02;6.32;;;4.40;;
20491;SDS011;10404;51.468;6.762;2023-07-22T05:20:28;5.15;;;3.70;;
20491;SDS011;10404;51.468;6.762;2023-07-22T05:22:53;6.10;;;4.45;;
20491;SDS011;10404;51.468;6.762;2023-07-22T05:25:20;5.90;;;4.03;;
20491;SDS011;10404;51.468;6.762;2023-07-22T05:27:45;6.35;;;4.38;;
20491;SDS011;10404;51.468;6.762;2023-07-22T05:30:11;5.95;;;4.43;;
20491;SDS011;10404;51.468;6.762;2023-07-22T05:32:37;5.22;;;4.40;;
20491;SDS011;10404;51.468;6.762;2023-07-22T05:35:03;5.60;;;4.30;;
20491;SDS011;10404;51.468;6.762;2023-07-22T05:37:30;4.70;;;3.80;;
20491;SDS011;10404;51.468;6.762;2023-07-22T05:39:56;6.88;;;4.40;;
20491;SDS011;10404;51.468;6.762;2023-07-22T05:42:21;7.22;;;4.75;;
20491;SDS011;10404;51.468;6.762;2023-07-22T05:44:47;6.00;;;4.30;;
20491;SDS011;10404;51.468;6.762;2023-07-22T05:47:13;5.85;;;4.80;;
20491;SDS011;10404;51.468;6.762;2023-07-22T05:49:39;6.55;;;3.95;;
20491;SDS011;10404;51.468;6.762;2023-07-22T05:52:04;6.57;;;4.25;;
20491;SDS011;10404;51.468;6.762;2023-07-22T05:54:31;5.88;;;3.72;;
20491;SDS011;10404;51.468;6.762;2023-07-22T05:56:56;6.35;;;4.20;;
20491;SDS011;10404;51.468;6.762;2023-07-22T05:59:22;5.57;;;3.97;;
20491;SDS011;10404;51.468;6.762;2023-07-22T06:01:47;5.50;;;4.40;;
20491;SDS011;10404;51.468;6.762;2023-07-22T06:04:13;7.88;;;3.88;;
20491;SDS011;10404;51.468;6.762;2023-07-22T06:06:39;5.97;;;3.63;;
20491;SDS011;10404;51.468;6.762;2023-07-22T06:09:04;7.07;;;4.75;;
20491;SDS011;10404;51.468;6.762;2023-07-22T06:11:30;6.70;;;4.30;;
20491;SDS011;10404;51.468;6.762;2023-07-22T06:13:55;6.82;;;4.30;;
20491;SDS011;10404;51.468;6.762;2023-07-22T06:16:21;6.88;;;4.82;;
20491;SDS011;10404;51.468;6.762;2023-07-22T06:18:47;5.97;;;4.57;;
20491;SDS011;10404;51.468;6.762;2023-07-22T06:21:13;5.50;;;4.00;;
20491;SDS011;10404;51.468;6.762;2023-07-22T06:23:38;6.03;;;4.20;;
20491;SDS011;10404;51.468;6.762;2023-07-22T06:26:04;5.22;;;4.72;;
20491;SDS011;10404;51.468;6.762;2023-07-22T06:28:30;6.20;;;4.03;;
20491;SDS011;10404;51.468;6.762;2023-07-22T06:30:55;5.07;;;4.13;;
20491;SDS011;10404;51.468;6.762;2023-07-22T06:33:22;7.38;;;4.32;;
20491;SDS011;10404;51.468;6.762;2023-07-22T06:35:47;6.88;;;5.15;;
20491;SDS011;10404;51.468;6.762;2023-07-22T06:38:13;6.28;;;4.40;;
20491;SDS011;10404;51.468;6.762;2023-07-22T06:40:39;6.90;;;4.15;;
20491;SDS011;10404;51.468;6.762;2023-07-22T06:43:05;6.40;;;4.30;;
20491;SDS011;10404;51.468;6.762;2023-07-22T06:45:31;7.07;;;4.45;;
20491;SDS011;10404;51.468;6.762;2023-07-22T06:47:57;5.45;;;4.35;;
20491;SDS011;10404;51.468;6.762;2023-07-22T06:50:23;7.57;;;4.43;;
20491;SDS011;10404;51.468;6.762;2023-07-22T06:52:48;6.32;;;4.35;;
20491;SDS011;10404;51.468;6.762;2023-07-22T06:55:14;6.10;;;4.10;;
20491;SDS011;10404;51.468;6.762;2023-07-22T06:57:40;6.32;;;4.20;;
20491;SDS011;10404;51.468;6.762;2023-07-22T07:00:06;6.95;;;4.65;;
20491;SDS011;10404;51.468;6.762;2023-07-22T07:02:32;6.78;;;4.72;;
20491;SDS011;10404;51.468;6.762;2023-07-22T07:04:57;6.82;;;4.95;;
20491;SDS011;10404;51.468;6.762;2023-07-22T07:07:23;6.15;;;4.55;;
20491;SDS011;10404;51.468;6.762;2023-07-22T07:09:48;6.93;;;4.80;;
20491;SDS011;10404;51.468;6.762;2023-07-22T07:12:15;5.65;;;4.75;;
20491;SDS011;10404;51.468;6.762;2023-07-22T07:14:41;6.43;;;4.60;;
20491;SDS011;10404;51.468;6.762;2023-07-22T07:17:06;6.18;;;4.95;;
20491;SDS011;10404;51.468;6.762;2023-07-22T07:19:32;5.88;;;4.10;;
20491;SDS011;10404;51.468;6.762;2023-07-22T07:21:57;7.47;;;4.57;;
20491;SDS011;10404;51.468;6.762;2023-07-22T07:24:23;6.70;;;4.25;;
20491;SDS011;10404;51.468;6.762;2023-07-22T07:26:49;6.55;;;4.13;;
20491;SDS011;10404;51.468;6.762;2023-07-22T07:29:15;7.32;;;4.93;;
20491;SDS011;10404;51.468;6.762;2023-07-22T07:31:40;8.02;;;4.43;;
20491;SDS011;10404;51.468;6.762;2023-07-22T07:34:06;5.70;;;4.40;;
20491;SDS011;10404;51.468;6.762;2023-07-22T07:36:32;5.82;;;4.28;;
20491;SDS011;10404;51.468;6.762;2023-07-22T07:38:58;5.63;;;4.43;;
20491;SDS011;10404;51.468;6.762;2023-07-22T07:41:24;6.93;;;4.43;;
20491;SDS011;10404;51.468;6.762;2023-07-22T07:43:50;6.43;;;4.85;;
20491;SDS011;10404;51.468;6.762;2023-07-22T07:48:43;5.70;;;4.25;;
20491;SDS011;10404;51.468;6.762;2023-07-22T07:51:10;6.97;;;5.18;;
20491;SDS011;10404;51.468;6.762;2023-07-22T07:53:37;5.97;;;4.15;;
20491;SDS011;10404;51.468;6.762;2023-07-22T07:56:02;8.25;;;4.97;;
20491;SDS011;10404;51.468;6.762;2023-07-22T07:58:28;8.05;;;4.65;;
20491;SDS011;10404;51.468;6.762;2023-07-22T08:00:54;8.50;;;5.05;;
20491;SDS011;10404;51.468;6.762;2023-07-22T08:03:19;7.53;;;4.95;;
20491;SDS011;10404;51.468;6.762;2023-07-22T08:05:45;5.88;;;4.13;;
20491;SDS011;10404;51.468;6.762;2023-07-22T08:08:11;6.10;;;5.18;;
20491;SDS011;10404;51.468;6.762;2023-07-22T08:10:36;6.07;;;4.03;;
20491;SDS011;10404;51.468;6.762;2023-07-22T08:13:02;5.65;;;4.72;;
20491;SDS011;10404;51.468;6.762;2023-07-22T08:15:28;6.43;;;4.57;;
20491;SDS011;10404;51.468;6.762;2023-07-22T08:17:53;6.22;;;4.07;;
20491;SDS011;10404;51.468;6.762;2023-07-22T08:20:19;6.35;;;4.45;;
20491;SDS011;10404;51.468;6.762;2023-07-22T08:22:46;6.55;;;4.60;;
20491;SDS011;10404;51.468;6.762;2023-07-22T08:25:11;6.70;;;4.47;;
20491;SDS011;10404;51.468;6.762;2023-07-22T08:27:37;5.93;;;4.38;;
20491;SDS011;10404;51.468;6.762;2023-07-22T08:30:03;5.25;;;4.25;;
20491;SDS011;10404;51.468;6.762;2023-07-22T08:32:28;6.50;;;4.20;;
20491;SDS011;10404;51.468;6.762;2023-07-22T08:34:54;6.07;;;4.20;;
20491;SDS011;10404;51.468;6.762;2023-07-22T08:37:20;6.28;;;4.70;;
20491;SDS011;10404;51.468;6.762;2023-07-22T08:39:45;5.45;;;4.28;;
20491;SDS011;10404;51.468;6.762;2023-07-22T08:42:11;6.28;;;4.40;;
20491;SDS011;10404;51.468;6.762;2023-07-22T08:44:40;5.78;;;4.05;;
20491;SDS011;10404;51.468;6.762;2023-07-22T08:47:10;5.55;;;4.30;;
20491;SDS011;10404;51.468;6.762;2023-07-22T08:49:41;6.50;;;4.22;;
20491;SDS011;10404;51.468;6.762;2023-07-22T08:52:13;7.70;;;4.45;;
20491;SDS011;10404;51.468;6.762;2023-07-22T08:54:40;6.22;;;4.25;;
20491;SDS011;10404;51.468;6.762;2023-07-22T08:57:07;6.22;;;4.68;;
20491;SDS011;10404;51.468;6.762;2023-07-22T08:59:34;5.18;;;4.05;;
20491;SDS011;10404;51.468;6.762;2023-07-22T09:02:01;5.68;;;4.10;;
20491;SDS011;10404;51.468;6.762;2023-07-22T09:04:26;5.57;;;3.75;;
20491;SDS011;10404;51.468;6.762;2023-07-22T09:06:52;6.72;;;4.60;;
20491;SDS011;10404;51.468;6.762;2023-07-22T09:09:19;5.47;;;4.53;;
20491;SDS011;10404;51.468;6.762;2023-07-22T09:11:47;5.80;;;3.83;;
20491;SDS011;10404;51.468;6.762;2023-07-22T09:14:13;5.65;;;3.92;;
20491;SDS011;10404;51.468;6.762;2023-07-22T09:16:39;5.60;;;4.00;;
20491;SDS011;10404;51.468;6.762;2023-07-22T09:19:05;5.05;;;3.90;;
20491;SDS011;10404;51.468;6.762;2023-07-22T09:21:31;7.70;;;4.63;;
20491;SDS011;10404;51.468;6.762;2023-07-22T09:24:00;5.32;;;4.05;;
20491;SDS011;10404;51.468;6.762;2023-07-22T09:26:26;5.63;;;3.70;;
20491;SDS011;10404;51.468;6.762;2023-07-22T09:28:55;4.72;;;3.80;;
20491;SDS011;10404;51.468;6.762;2023-07-22T09:31:23;5.50;;;4.15;;
20491;SDS011;10404;51.468;6.762;2023-07-22T09:33:50;5.50;;;3.97;;
20491;SDS011;10404;51.468;6.762;2023-07-22T09:38:44;5.13;;;3.85;;
20491;SDS011;10404;51.468;6.762;2023-07-22T09:41:10;4.45;;;3.67;;
20491;SDS011;10404;51.468;6.762;2023-07-22T09:43:36;4.93;;;3.63;;
20491;SDS011;10404;51.468;6.762;2023-07-22T09:46:10;5.32;;;3.70;;
20491;SDS011;10404;51.468;6.762;2023-07-22T09:48:42;6.00;;;3.47;;
20491;SDS011;10404;51.468;6.762;2023-07-22T09:51:13;3.83;;;3.42;;
20491;SDS011;10404;51.468;6.762;2023-07-22T09:53:59;5.47;;;3.67;;
20491;SDS011;10404;51.468;6.762;2023-07-22T09:56:26;4.10;;;3.63;;
20491;SDS011;10404;51.468;6.762;2023-07-22T09:58:52;3.90;;;3.17;;
20491;SDS011;10404;51.468;6.762;2023-07-22T10:01:19;4.05;;;3.00;;
20491;SDS011;10404;51.468;6.762;2023-07-22T10:03:47;3.50;;;2.63;;
20491;SDS011;10404;51.468;6.762;2023-07-22T10:06:19;4.63;;;3.42;;
20491;SDS011;10404;51.468;6.762;2023-07-22T10:08:48;3.90;;;3.50;;
20491;SDS011;10404;51.468;6.762;2023-07-22T10:11:14;4.57;;;3.35;;
20491;SDS011;10404;51.468;6.762;2023-07-22T10:13:41;5.68;;;3.35;;
20491;SDS011;10404;51.468;6.762;2023-07-22T10:16:07;3.05;;;2.75;;
20491;SDS011;10404;51.468;6.762;2023-07-22T10:18:33;3.67;;;2.70;;
20491;SDS011;10404;51.468;6.762;2023-07-22T10:20:59;4.10;;;2.90;;
20491;SDS011;10404;51.468;6.762;2023-07-22T10:23:26;3.50;;;3.10;;
20491;SDS011;10404;51.468;6.762;2023-07-22T10:25:52;4.80;;;3.05;;
20491;SDS011;10404;51.468;6.762;2023-07-22T10:28:19;3.10;;;2.80;;
20491;SDS011;10404;51.468;6.762;2023-07-22T10:30:47;4.20;;;3.30;;
20491;SDS011;10404;51.468;6.762;2023-07-22T10:33:12;3.70;;;3.15;;
20491;SDS011;10404;51.468;6.762;2023-07-22T10:35:42;4.20;;;3.15;;
20491;SDS011;10404;51.468;6.762;2023-07-22T10:43:17;3.70;;;3.28;;
20491;SDS011;10404;51.468;6.762;2023-07-22T10:45:48;3.47;;;2.72;;
20491;SDS011;10404;51.468;6.762;2023-07-22T10:48:15;3.42;;;2.80;;
20491;SDS011;10404;51.468;6.762;2023-07-22T10:50:44;3.00;;;2.60;;
20491;SDS011;10404;51.468;6.762;2023-07-22T10:53:12;4.20;;;2.60;;
20491;SDS011;10404;51.468;6.762;2023-07-22T11:11:52;3.70;;;2.72;;
20491;SDS011;10404;51.468;6.762;2023-07-22T11:14:24;3.13;;;2.80;;
20491;SDS011;10404;51.468;6.762;2023-07-22T11:16:50;3.45;;;2.70;;
20491;SDS011;10404;51.468;6.762;2023-07-22T11:19:17;4.03;;;3.22;;
20491;SDS011;10404;51.468;6.762;2023-07-22T11:21:45;2.88;;;2.40;;
20491;SDS011;10404;51.468;6.762;2023-07-22T11:24:11;3.42;;;2.83;;
20491;SDS011;10404;51.468;6.762;2023-07-22T11:26:38;3.85;;;2.30;;
20491;SDS011;10404;51.468;6.762;2023-07-22T11:29:04;3.03;;;2.72;;
20491;SDS011;10404;51.468;6.762;2023-07-22T11:31:38;4.10;;;2.40;;
20491;SDS011;10404;51.468;6.762;2023-07-22T11:34:10;3.67;;;2.67;;
20491;SDS011;10404;51.468;6.762;2023-07-22T11:36:39;2.85;;;2.00;;
20491;SDS011;10404;51.468;6.762;2023-07-22T11:39:09;3.13;;;2.67;;
20491;SDS011;10404;51.468;6.762;2023-07-22T11:41:42;3.15;;;2.47;;
20491;SDS011;10404;51.468;6.762;2023-07-22T11:44:09;2.67;;;2.45;;
20491;SDS011;10404;51.468;6.762;2023-07-22T11:49:26;3.20;;;2.22;;
20491;SDS011;10404;51.468;6.762;2023-07-22T11:51:53;2.90;;;2.25;;
20491;SDS011;10404;51.468;6.762;2023-07-22T11:54:29;4.00;;;2.00;;
20491;SDS011;10404;51.468;6.762;2023-07-22T11:56:57;2.63;;;2.42;;
20491;SDS011;10404;51.468;6.762;2023-07-22T11:59:36;3.22;;;2.75;;
20491;SDS011;10404;51.468;6.762;2023-07-22T12:02:12;2.88;;;2.38;;
20491;SDS011;10404;51.468;6.762;2023-07-22T12:04:42;3.47;;;2.35;;
20491;SDS011;10404;51.468;6.762;2023-07-22T12:09:55;3.00;;;2.33;;
20491;SDS011;10404;51.468;6.762;2023-07-22T12:12:39;2.40;;;2.13;;
20491;SDS011;10404;51.468;6.762;2023-07-22T12:17:54;2.13;;;1.92;;
20491;SDS011;10404;51.468;6.762;2023-07-22T12:20:25;3.42;;;2.25;;
20491;SDS011;10404;51.468;6.762;2023-07-22T12:22:52;2.83;;;1.95;;
20491;SDS011;10404;51.468;6.762;2023-07-22T12:25:18;2.53;;;2.28;;
20491;SDS011;10404;51.468;6.762;2023-07-22T12:27:44;2.47;;;1.85;;
20491;SDS011;10404;51.468;6.762;2023-07-22T12:30:10;3.15;;;2.55;;
20491;SDS011;10404;51.468;6.762;2023-07-22T12:32:36;2.85;;;2.28;;
20491;SDS011;10404;51.468;6.762;2023-07-22T12:35:02;3.05;;;2.13;;
20491;SDS011;10404;51.468;6.762;2023-07-22T12:37:28;2.35;;;2.15;;
20491;SDS011;10404;51.468;6.762;2023-07-22T12:39:54;2.80;;;2.03;;
20491;SDS011;10404;51.468;6.762;2023-07-22T12:42:20;2.65;;;2.10;;
20491;SDS011;10404;51.468;6.762;2023-07-22T12:44:46;2.50;;;2.30;;
20491;SDS011;10404;51.468;6.762;2023-07-22T12:47:11;3.50;;;2.38;;
20491;SDS011;10404;51.468;6.762;2023-07-22T12:49:37;2.35;;;2.15;;
20491;SDS011;10404;51.468;6.762;2023-07-22T12:52:03;2.60;;;2.28;;
20491;SDS011;10404;51.468;6.762;2023-07-22T12:54:30;2.63;;;2.03;;
20491;SDS011;10404;51.468;6.762;2023-07-22T12:56:56;2.72;;;2.13;;
20491;SDS011;10404;51.468;6.762;2023-07-22T12:59:22;2.60;;;2.40;;
20491;SDS011;10404;51.468;6.762;2023-07-22T13:01:47;3.03;;;2.60;;
20491;SDS011;10404;51.468;6.762;2023-07-22T13:04:13;2.80;;;2.25;;
20491;SDS011;10404;51.468;6.762;2023-07-22T13:06:39;2.58;;;2.15;;
20491;SDS011;10404;51.468;6.762;2023-07-22T13:09:04;4.32;;;2.65;;
20491;SDS011;10404;51.468;6.762;2023-07-22T13:11:30;2.28;;;2.08;;
20491;SDS011;10404;51.468;6.762;2023-07-22T13:13:56;3.35;;;2.10;;
20491;SDS011;10404;51.468;6.762;2023-07-22T13:16:21;2.38;;;2.03;;
20491;SDS011;10404;51.468;6.762;2023-07-22T13:18:47;2.25;;;2.00;;
20491;SDS011;10404;51.468;6.762;2023-07-22T13:21:12;4.15;;;2.67;;
20491;SDS011;10404;51.468;6.762;2023-07-22T13:23:38;2.58;;;2.35;;
20491;SDS011;10404;51.468;6.762;2023-07-22T13:26:03;3.80;;;2.63;;
20491;SDS011;10404;51.468;6.762;2023-07-22T13:28:29;2.75;;;2.20;;
20491;SDS011;10404;51.468;6.762;2023-07-22T13:30:55;3.03;;;2.50;;
20491;SDS011;10404;51.468;6.762;2023-07-22T13:33:20;2.83;;;2.53;;
20491;SDS011;10404;51.468;6.762;2023-07-22T13:35:46;3.50;;;3.25;;
20491;SDS011;10404;51.468;6.762;2023-07-22T13:38:11;2.97;;;2.17;;
20491;SDS011;10404;51.468;6.762;2023-07-22T13:40:37;3.13;;;2.83;;
20491;SDS011;10404;51.468;6.762;2023-07-22T13:43:02;2.53;;;2.30;;
20491;SDS011;10404;51.468;6.762;2023-07-22T13:45:28;2.33;;;1.98;;
20491;SDS011;10404;51.468;6.762;2023-07-22T13:47:54;2.50;;;2.30;;
20491;SDS011;10404;51.468;6.762;2023-07-22T13:50:19;2.42;;;2.22;;
20491;SDS011;10404;51.468;6.762;2023-07-22T13:52:45;2.40;;;2.00;;
20491;SDS011;10404;51.468;6.762;2023-07-22T13:55:11;2.22;;;2.03;;
20491;SDS011;10404;51.468;6.762;2023-07-22T13:57:36;2.85;;;2.35;;
20491;SDS011;10404;51.468;6.762;2023-07-22T14:00:02;3.35;;;2.17;;
20491;SDS011;10404;51.468;6.762;2023-07-22T14:02:33;2.67;;;2.42;;
20491;SDS011;10404;51.468;6.762;2023-07-22T14:04:59;2.83;;;2.47;;
20491;SDS011;10404;51.468;6.762;2023-07-22T14:07:24;3.03;;;2.22;;
20491;SDS011;10404;51.468;6.762;2023-07-22T14:09:50;3.65;;;2.65;;
20491;SDS011;10404;51.468;6.762;2023-07-22T14:12:16;2.97;;;2.78;;
20491;SDS011;10404;51.468;6.762;2023-07-22T14:14:41;2.45;;;1.90;;
20491;SDS011;10404;51.468;6.762;2023-07-22T14:17:07;2.72;;;2.20;;
20491;SDS011;10404;51.468;6.762;2023-07-22T14:19:32;2.83;;;2.53;;
20491;SDS011;10404;51.468;6.762;2023-07-22T14:21:58;3.30;;;2.80;;
20491;SDS011;10404;51.468;6.762;2023-07-22T14:24:24;3.40;;;1.98;;
20491;SDS011;10404;51.468;6.762;2023-07-22T14:26:49;4.07;;;2.47;;
20491;SDS011;10404;51.468;6.762;2023-07-22T14:29:15;2.47;;;2.03;;
20491;SDS011;10404;51.468;6.762;2023-07-22T14:31:41;2.53;;;2.33;;
20491;SDS011;10404;51.468;6.762;2023-07-22T14:34:09;4.05;;;2.55;;
20491;SDS011;10404;51.468;6.762;2023-07-22T14:36:35;3.05;;;2.05;;
20491;SDS011;10404;51.468;6.762;2023-07-22T14:39:00;2.40;;;2.20;;
20491;SDS011;10404;51.468;6.762;2023-07-22T14:41:26;2.97;;;2.38;;
20491;SDS011;10404;51.468;6.762;2023-07-22T14:43:52;3.83;;;2.65;;
20491;SDS011;10404;51.468;6.762;2023-07-22T14:46:18;2.35;;;2.05;;
20491;SDS011;10404;51.468;6.762;2023-07-22T14:48:43;2.75;;;2.53;;
20491;SDS011;10404;51.468;6.762;2023-07-22T14:51:10;2.47;;;2.10;;
20491;SDS011;10404;51.468;6.762;2023-07-22T14:53:36;3.25;;;2.65;;
20491;SDS011;10404;51.468;6.762;2023-07-22T14:56:01;3.55;;;2.15;;
20491;SDS011;10404;51.468;6.762;2023-07-22T14:58:27;3.25;;;2.40;;
20491;SDS011;10404;51.468;6.762;2023-07-22T15:00:52;2.67;;;2.17;;
20491;SDS011;10404;51.468;6.762;2023-07-22T15:03:18;2.47;;;1.95;;
20491;SDS011;10404;51.468;6.762;2023-07-22T15:05:44;3.22;;;2.92;;
20491;SDS011;10404;51.468;6.762;2023-07-22T15:08:09;2.88;;;2.55;;
20491;SDS011;10404;51.468;6.762;2023-07-22T15:10:35;3.05;;;2.50;;
20491;SDS011;10404;51.468;6.762;2023-07-22T15:13:00;2.75;;;2.25;;
20491;SDS011;10404;51.468;6.762;2023-07-22T15:15:27;2.80;;;1.90;;
20491;SDS011;10404;51.468;6.762;2023-07-22T15:17:53;2.63;;;2.42;;